Gassim, السعودية

01:23 PM AST on أعس×س 05, 2015 (GMT +0300)
Gassim | | Change Station
CLOSE
Current Station
Airport
Location: Gassim,
Elevation: 2126 ft
Nearby Weather Stations

Elev 2126 ft 26.30 °N, 43.77 °E | Updated 23 minutes ago

Mostly Cloudy
غائم كلياً
111 °F
Feels Like 111 °F
N
9
ريح متغير ريح from شمال

هذا اليوم
High -- | Low -- °F
--% Chance of Precip.
Yesterday
High -- | Low -- °F
Precip. -- في
5:32 AM 6:49 PM
الأحدب الأخير, 68% visible
الضغط 29.71 في
وضوح الرؤية 6.2 أميال
سحابات غائم كلياً 4000 ft
نقطة الندى 52 °F
الرطوبة 14%
Rainfall 0.00 في
عمق الثلج Not available.
الأشعة فوق البنفسجية 8 out of 12
Pollen Not available.
جودة الهواء Not available.
Flu Activity Not available.
METAR OEGS 051000Z 01008KT 9999 BKN040 44/11 Q1006

More Conditions Fewer Conditions

الضغط 29.71 في
وضوح الرؤية 6.2 أميال
سحابات غائم كلياً 4000 ft
نقطة الندى 52 °F
الرطوبة 14%
Rainfall 0.00 في
عمق الثلج Not available.
الأشعة فوق البنفسجية 8 out of 12
Pollen Not available.
جودة الهواء Not available.
Flu Activity Not available.
METAR OEGS 051000Z 01008KT 9999 BKN040 44/11 Q1006

More Conditions Fewer Conditions

10-Day Weather Forecast

×

Almanac

علم الفلك

Aug. 05, 2015 Rise Set
Actual Time
Civil Twilight
Nautical Twilight
Astronomical Twilight
قمر
Length Of Visible Light
طول الیوم
Tomorrow will be .
, % of the Moon is Illuminated

Today's Extremes

Country Highs Country Lows

Community

WunderPhotos

Upload Photos

1,844,113 photos uploaded!

WunderBlogs® & News

Nearby

جودة الهواء

  جودة الهواء AQ Index Pollutant
Not available.

عمق الثلج

Station Depth Elevation

Earthquake Activity

City Distance Mag. Time & Date
Minimum magnitude displayed is 2.5.

Coastal Water Temperatures

مكان درجات الحرارة

Stations

Nearby Weather Stations

Station Location الحرارة رياح باردة نقطة الندى الرطوبة ريح Precip. Elev تحديث Type